sensor_id;sensor_type;location;lat;lon;timestamp;temperature;humidity
14521;DHT22;7347;50.844;4.490;2022-12-07T08:31:50;5.00;99.90
14521;DHT22;7347;50.844;4.490;2022-12-07T08:34:17;5.00;99.90
14521;DHT22;7347;50.844;4.490;2022-12-07T08:36:44;5.10;99.90
14521;DHT22;7347;50.844;4.490;2022-12-07T08:39:11;5.20;99.90
14521;DHT22;7347;50.844;4.490;2022-12-07T08:41:38;5.20;99.90
14521;DHT22;7347;50.844;4.490;2022-12-07T08:44:05;5.20;99.90
14521;DHT22;7347;50.844;4.490;2022-12-07T08:46:36;5.10;99.90
14521;DHT22;7347;50.844;4.490;2022-12-07T08:49:08;5.20;99.90
14521;DHT22;7347;50.844;4.490;2022-12-07T08:51:36;5.30;99.90
14521;DHT22;7347;50.844;4.490;2022-12-07T08:54:07;5.40;99.90
14521;DHT22;7347;50.844;4.490;2022-12-07T08:56:34;5.50;99.90
14521;DHT22;7347;50.844;4.490;2022-12-07T08:59:02;5.50;99.90
14521;DHT22;7347;50.844;4.490;2022-12-07T09:01:29;5.60;99.90
14521;DHT22;7347;50.844;4.490;2022-12-07T09:03:56;5.60;99.90
14521;DHT22;7347;50.844;4.490;2022-12-07T09:06:24;5.70;99.90
14521;DHT22;7347;50.844;4.490;2022-12-07T09:08:55;5.80;99.90
14521;DHT22;7347;50.844;4.490;2022-12-07T09:11:24;5.90;99.90
14521;DHT22;7347;50.844;4.490;2022-12-07T09:13:51;6.00;99.90
14521;DHT22;7347;50.844;4.490;2022-12-07T09:16:18;6.20;99.90
14521;DHT22;7347;50.844;4.490;2022-12-07T09:18:44;6.40;99.90
14521;DHT22;7347;50.844;4.490;2022-12-07T09:21:11;6.60;99.90
14521;DHT22;7347;50.844;4.490;2022-12-07T09:23:41;6.80;99.90
14521;DHT22;7347;50.844;4.490;2022-12-07T09:26:08;6.90;99.90
14521;DHT22;7347;50.844;4.490;2022-12-07T09:28:34;7.00;99.90
14521;DHT22;7347;50.844;4.490;2022-12-07T09:31:02;7.00;99.90
14521;DHT22;7347;50.844;4.490;2022-12-07T09:33:29;7.10;99.90
14521;DHT22;7347;50.844;4.490;2022-12-07T09:35:56;7.30;99.90
14521;DHT22;7347;50.844;4.490;2022-12-07T09:38:23;7.30;99.90
14521;DHT22;7347;50.844;4.490;2022-12-07T09:40:54;7.40;99.90
14521;DHT22;7347;50.844;4.490;2022-12-07T09:43:23;7.40;99.90
14521;DHT22;7347;50.844;4.490;2022-12-07T09:45:52;7.40;99.90
14521;DHT22;7347;50.844;4.490;2022-12-07T09:48:21;8.50;99.90
14521;DHT22;7347;50.844;4.490;2022-12-07T09:50:49;9.10;99.90
14521;DHT22;7347;50.844;4.490;2022-12-07T09:53:25;9.20;99.90
14521;DHT22;7347;50.844;4.490;2022-12-07T09:55:55;9.00;99.90
14521;DHT22;7347;50.844;4.490;2022-12-07T09:58:24;8.80;99.90
14521;DHT22;7347;50.844;4.490;2022-12-07T10:00:53;8.70;99.90
14521;DHT22;7347;50.844;4.490;2022-12-07T10:03:22;8.50;99.90
14521;DHT22;7347;50.844;4.490;2022-12-07T10:05:50;8.50;99.90
14521;DHT22;7347;50.844;4.490;2022-12-07T10:08:18;8.60;99.90
14521;DHT22;7347;50.844;4.490;2022-12-07T10:10:51;8.70;99.90
14521;DHT22;7347;50.844;4.490;2022-12-07T10:13:21;8.60;99.90
14521;DHT22;7347;50.844;4.490;2022-12-07T10:15:51;8.40;99.90
14521;DHT22;7347;50.844;4.490;2022-12-07T10:18:20;8.50;99.90
14521;DHT22;7347;50.844;4.490;2022-12-07T10:20:48;8.50;99.90
14521;DHT22;7347;50.844;4.490;2022-12-07T10:23:16;8.50;99.90
14521;DHT22;7347;50.844;4.490;2022-12-07T10:25:44;8.50;99.90
14521;DHT22;7347;50.844;4.490;2022-12-07T10:28:14;8.50;99.90
14521;DHT22;7347;50.844;4.490;2022-12-07T10:30:55;8.50;99.90
14521;DHT22;7347;50.844;4.490;2022-12-07T10:33:32;8.60;99.90
14521;DHT22;7347;50.844;4.490;2022-12-07T10:36:00;8.60;99.90
14521;DHT22;7347;50.844;4.490;2022-12-07T10:38:28;8.40;99.90
14521;DHT22;7347;50.844;4.490;2022-12-07T10:41:04;8.30;99.90
14521;DHT22;7347;50.844;4.490;2022-12-07T10:43:31;8.20;99.90
14521;DHT22;7347;50.844;4.490;2022-12-07T10:46:36;8.20;99.90
14521;DHT22;7347;50.844;4.490;2022-12-07T10:49:18;8.20;99.90
14521;DHT22;7347;50.844;4.490;2022-12-07T10:51:57;8.10;99.90
14521;DHT22;7347;50.844;4.490;2022-12-07T10:54:37;8.20;99.90
14521;DHT22;7347;50.844;4.490;2022-12-07T10:57:17;7.90;99.90
14521;DHT22;7347;50.844;4.490;2022-12-07T11:00:02;7.90;99.90
14521;DHT22;7347;50.844;4.490;2022-12-07T11:02:57;7.90;99.90
14521;DHT22;7347;50.844;4.490;2022-12-07T11:05:34;8.00;99.90
14521;DHT22;7347;50.844;4.490;2022-12-07T11:08:13;8.00;99.90
14521;DHT22;7347;50.844;4.490;2022-12-07T11:10:45;7.80;99.90
14521;DHT22;7347;50.844;4.490;2022-12-07T11:13:27;7.70;99.90
14521;DHT22;7347;50.844;4.490;2022-12-07T11:16:19;7.80;99.90
14521;DHT22;7347;50.844;4.490;2022-12-07T11:19:00;7.90;99.90
14521;DHT22;7347;50.844;4.490;2022-12-07T11:21:35;8.10;99.90
14521;DHT22;7347;50.844;4.490;2022-12-07T11:24:10;8.10;99.90
14521;DHT22;7347;50.844;4.490;2022-12-07T11:26:51;8.20;99.90
14521;DHT22;7347;50.844;4.490;2022-12-07T11:29:33;8.20;99.90
14521;DHT22;7347;50.844;4.490;2022-12-07T11:32:08;8.30;99.90
14521;DHT22;7347;50.844;4.490;2022-12-07T11:34:47;8.30;99.90
14521;DHT22;7347;50.844;4.490;2022-12-07T11:37:18;8.00;99.90
14521;DHT22;7347;50.844;4.490;2022-12-07T11:39:50;7.80;99.90
14521;DHT22;7347;50.844;4.490;2022-12-07T11:42:22;7.80;99.90
14521;DHT22;7347;50.844;4.490;2022-12-07T11:44:53;8.00;99.90
14521;DHT22;7347;50.844;4.490;2022-12-07T11:47:27;8.10;99.90
14521;DHT22;7347;50.844;4.490;2022-12-07T11:50:01;8.10;99.90
14521;DHT22;7347;50.844;4.490;2022-12-07T11:52:36;8.20;99.90
14521;DHT22;7347;50.844;4.490;2022-12-07T11:55:17;8.30;99.90
14521;DHT22;7347;50.844;4.490;2022-12-07T11:57:51;8.20;99.90
14521;DHT22;7347;50.844;4.490;2022-12-07T12:00:19;8.10;99.90
14521;DHT22;7347;50.844;4.490;2022-12-07T12:02:52;8.20;99.90
14521;DHT22;7347;50.844;4.490;2022-12-07T12:05:22;8.40;99.90
14521;DHT22;7347;50.844;4.490;2022-12-07T12:07:57;8.20;99.90
14521;DHT22;7347;50.844;4.490;2022-12-07T12:10:34;8.30;99.90
14521;DHT22;7347;50.844;4.490;2022-12-07T12:13:19;8.30;99.90
14521;DHT22;7347;50.844;4.490;2022-12-07T12:16:08;8.30;99.90
14521;DHT22;7347;50.844;4.490;2022-12-07T12:18:53;8.60;99.90
14521;DHT22;7347;50.844;4.490;2022-12-07T12:21:27;8.90;99.90
14521;DHT22;7347;50.844;4.490;2022-12-07T12:23:57;9.00;99.90
14521;DHT22;7347;50.844;4.490;2022-12-07T12:26:27;9.00;99.90
14521;DHT22;7347;50.844;4.490;2022-12-07T12:28:57;9.10;99.90
14521;DHT22;7347;50.844;4.490;2022-12-07T12:31:34;8.90;99.90
14521;DHT22;7347;50.844;4.490;2022-12-07T12:34:04;8.80;99.90
14521;DHT22;7347;50.844;4.490;2022-12-07T12:36:46;8.90;99.90
14521;DHT22;7347;50.844;4.490;2022-12-07T12:39:14;8.90;99.90
14521;DHT22;7347;50.844;4.490;2022-12-07T12:42:05;8.70;99.90
14521;DHT22;7347;50.844;4.490;2022-12-07T12:45:17;8.60;99.90
14521;DHT22;7347;50.844;4.490;2022-12-07T12:48:02;8.60;99.90
14521;DHT22;7347;50.844;4.490;2022-12-07T12:50:32;8.60;99.90
14521;DHT22;7347;50.844;4.490;2022-12-07T12:53:16;8.40;99.90
14521;DHT22;7347;50.844;4.490;2022-12-07T12:58:43;8.30;99.90
14521;DHT22;7347;50.844;4.490;2022-12-07T13:01:45;8.50;99.90
14521;DHT22;7347;50.844;4.490;2022-12-07T13:04:27;8.50;99.90
14521;DHT22;7347;50.844;4.490;2022-12-07T13:06:55;8.40;99.90
14521;DHT22;7347;50.844;4.490;2022-12-07T13:09:26;8.40;99.90
14521;DHT22;7347;50.844;4.490;2022-12-07T13:12:03;8.40;99.90
14521;DHT22;7347;50.844;4.490;2022-12-07T13:14:42;8.40;99.90
14521;DHT22;7347;50.844;4.490;2022-12-07T13:17:11;8.40;99.90
14521;DHT22;7347;50.844;4.490;2022-12-07T13:19:59;8.40;99.90
14521;DHT22;7347;50.844;4.490;2022-12-07T13:22:51;8.30;99.90
14521;DHT22;7347;50.844;4.490;2022-12-07T13:25:28;8.30;99.90
14521;DHT22;7347;50.844;4.490;2022-12-07T13:28:00;8.30;99.90
14521;DHT22;7347;50.844;4.490;2022-12-07T13:30:29;8.20;99.90
14521;DHT22;7347;50.844;4.490;2022-12-07T13:32:58;8.20;99.90
14521;DHT22;7347;50.844;4.490;2022-12-07T13:35:33;8.10;99.90
14521;DHT22;7347;50.844;4.490;2022-12-07T13:38:04;8.20;99.90
14521;DHT22;7347;50.844;4.490;2022-12-07T13:40:32;8.30;99.90
14521;DHT22;7347;50.844;4.490;2022-12-07T13:43:02;8.40;99.90
14521;DHT22;7347;50.844;4.490;2022-12-07T13:45:30;8.50;99.90
14521;DHT22;7347;50.844;4.490;2022-12-07T13:48:24;8.50;99.90
14521;DHT22;7347;50.844;4.490;2022-12-07T13:50:54;8.40;99.90
14521;DHT22;7347;50.844;4.490;2022-12-07T13:53:22;8.50;99.90
14521;DHT22;7347;50.844;4.490;2022-12-07T13:55:50;8.30;99.90
14521;DHT22;7347;50.844;4.490;2022-12-07T13:58:17;8.40;99.90
14521;DHT22;7347;50.844;4.490;2022-12-07T14:00:44;8.50;99.90
14521;DHT22;7347;50.844;4.490;2022-12-07T14:03:28;8.50;99.90
14521;DHT22;7347;50.844;4.490;2022-12-07T14:06:17;8.60;99.90
14521;DHT22;7347;50.844;4.490;2022-12-07T14:08:44;8.60;99.90
14521;DHT22;7347;50.844;4.490;2022-12-07T14:11:16;8.80;99.90
14521;DHT22;7347;50.844;4.490;2022-12-07T14:13:56;8.90;99.90
14521;DHT22;7347;50.844;4.490;2022-12-07T14:16:27;9.10;99.90
14521;DHT22;7347;50.844;4.490;2022-12-07T14:18:55;9.10;99.90
14521;DHT22;7347;50.844;4.490;2022-12-07T14:21:24;8.90;99.90
14521;DHT22;7347;50.844;4.490;2022-12-07T14:24:16;8.60;99.90
14521;DHT22;7347;50.844;4.490;2022-12-07T14:26:45;8.20;99.90
14521;DHT22;7347;50.844;4.490;2022-12-07T14:29:20;7.90;99.90
14521;DHT22;7347;50.844;4.490;2022-12-07T14:31:47;7.70;99.90
14521;DHT22;7347;50.844;4.490;2022-12-07T14:34:14;7.60;99.90
14521;DHT22;7347;50.844;4.490;2022-12-07T14:36:41;7.50;99.90
14521;DHT22;7347;50.844;4.490;2022-12-07T14:39:08;7.50;99.90
14521;DHT22;7347;50.844;4.490;2022-12-07T14:41:34;7.40;99.90
14521;DHT22;7347;50.844;4.490;2022-12-07T14:44:22;7.40;99.90
14521;DHT22;7347;50.844;4.490;2022-12-07T14:46:50;7.30;99.90
14521;DHT22;7347;50.844;4.490;2022-12-07T14:49:17;7.30;99.90
14521;DHT22;7347;50.844;4.490;2022-12-07T14:51:46;7.30;99.90
14521;DHT22;7347;50.844;4.490;2022-12-07T14:54:16;7.30;99.90
14521;DHT22;7347;50.844;4.490;2022-12-07T14:56:44;7.30;99.90
14521;DHT22;7347;50.844;4.490;2022-12-07T14:59:11;7.30;99.90
14521;DHT22;7347;50.844;4.490;2022-12-07T15:01:40;7.30;99.90
14521;DHT22;7347;50.844;4.490;2022-12-07T15:04:06;7.20;99.90
14521;DHT22;7347;50.844;4.490;2022-12-07T15:06:33;7.30;99.90
14521;DHT22;7347;50.844;4.490;2022-12-07T15:09:06;7.20;99.90
14521;DHT22;7347;50.844;4.490;2022-12-07T15:11:35;7.30;99.90
14521;DHT22;7347;50.844;4.490;2022-12-07T15:14:02;7.30;99.90
14521;DHT22;7347;50.844;4.490;2022-12-07T15:16:43;7.30;99.90
14521;DHT22;7347;50.844;4.490;2022-12-07T15:19:12;7.20;99.90
14521;DHT22;7347;50.844;4.490;2022-12-07T15:21:40;7.20;99.90
14521;DHT22;7347;50.844;4.490;2022-12-07T15:24:08;7.10;99.90
14521;DHT22;7347;50.844;4.490;2022-12-07T15:26:35;7.20;99.90
14521;DHT22;7347;50.844;4.490;2022-12-07T15:29:02;7.20;99.90
14521;DHT22;7347;50.844;4.490;2022-12-07T15:31:29;7.30;99.90
14521;DHT22;7347;50.844;4.490;2022-12-07T15:33:58;7.30;99.90
14521;DHT22;7347;50.844;4.490;2022-12-07T15:36:27;7.40;99.90
14521;DHT22;7347;50.844;4.490;2022-12-07T15:38:55;7.30;99.90
14521;DHT22;7347;50.844;4.490;2022-12-07T15:41:22;7.40;99.90
14521;DHT22;7347;50.844;4.490;2022-12-07T15:43:49;7.30;99.90
14521;DHT22;7347;50.844;4.490;2022-12-07T15:46:35;7.40;99.90
14521;DHT22;7347;50.844;4.490;2022-12-07T15:49:04;7.30;99.90
14521;DHT22;7347;50.844;4.490;2022-12-07T15:51:32;7.20;99.90
14521;DHT22;7347;50.844;4.490;2022-12-07T15:53:59;7.20;99.90
14521;DHT22;7347;50.844;4.490;2022-12-07T15:56:26;7.10;99.90
14521;DHT22;7347;50.844;4.490;2022-12-07T15:58:52;7.20;99.90
14521;DHT22;7347;50.844;4.490;2022-12-07T16:01:19;7.10;99.90
14521;DHT22;7347;50.844;4.490;2022-12-07T16:03:47;7.00;99.90
14521;DHT22;7347;50.844;4.490;2022-12-07T16:06:17;7.00;99.90
14521;DHT22;7347;50.844;4.490;2022-12-07T16:08:45;6.90;99.90
14521;DHT22;7347;50.844;4.490;2022-12-07T16:11:13;6.90;99.90
14521;DHT22;7347;50.844;4.490;2022-12-07T16:13:40;6.90;99.90
14521;DHT22;7347;50.844;4.490;2022-12-07T16:16:10;6.90;99.90
14521;DHT22;7347;50.844;4.490;2022-12-07T16:18:38;7.00;99.90
14521;DHT22;7347;50.844;4.490;2022-12-07T16:21:04;7.10;99.90
14521;DHT22;7347;50.844;4.490;2022-12-07T16:23:33;7.20;99.90
14521;DHT22;7347;50.844;4.490;2022-12-07T16:26:06;7.20;99.90
14521;DHT22;7347;50.844;4.490;2022-12-07T16:28:34;7.30;99.90
14521;DHT22;7347;50.844;4.490;2022-12-07T16:31:05;7.20;99.90
14521;DHT22;7347;50.844;4.490;2022-12-07T16:33:34;7.30;99.90
14521;DHT22;7347;50.844;4.490;2022-12-07T16:36:01;7.20;99.90
14521;DHT22;7347;50.844;4.490;2022-12-07T16:38:28;7.30;99.90
14521;DHT22;7347;50.844;4.490;2022-12-07T16:40:56;7.30;99.90
14521;DHT22;7347;50.844;4.490;2022-12-07T16:43:23;7.20;99.90
14521;DHT22;7347;50.844;4.490;2022-12-07T16:45:50;7.20;99.90
14521;DHT22;7347;50.844;4.490;2022-12-07T16:48:18;7.30;99.90
14521;DHT22;7347;50.844;4.490;2022-12-07T16:50:46;7.30;99.90
14521;DHT22;7347;50.844;4.490;2022-12-07T16:53:14;7.30;99.90
14521;DHT22;7347;50.844;4.490;2022-12-07T16:55:43;7.30;99.90
14521;DHT22;7347;50.844;4.490;2022-12-07T16:58:12;7.20;99.90
14521;DHT22;7347;50.844;4.490;2022-12-07T17:00:40;7.20;99.90
14521;DHT22;7347;50.844;4.490;2022-12-07T17:03:08;7.30;99.90
14521;DHT22;7347;50.844;4.490;2022-12-07T17:05:38;7.30;99.90
14521;DHT22;7347;50.844;4.490;2022-12-07T17:08:05;7.30;99.90
14521;DHT22;7347;50.844;4.490;2022-12-07T17:10:33;7.40;99.90
14521;DHT22;7347;50.844;4.490;2022-12-07T17:13:00;7.30;99.90
14521;DHT22;7347;50.844;4.490;2022-12-07T17:15:29;7.30;99.90
14521;DHT22;7347;50.844;4.490;2022-12-07T17:17:56;7.30;99.90
14521;DHT22;7347;50.844;4.490;2022-12-07T17:20:25;7.10;99.90
14521;DHT22;7347;50.844;4.490;2022-12-07T17:22:52;7.10;99.90
14521;DHT22;7347;50.844;4.490;2022-12-07T17:25:21;7.10;99.90
14521;DHT22;7347;50.844;4.490;2022-12-07T17:27:47;7.20;99.90
14521;DHT22;7347;50.844;4.490;2022-12-07T17:30:15;7.20;99.90
14521;DHT22;7347;50.844;4.490;2022-12-07T17:32:44;7.10;99.90
14521;DHT22;7347;50.844;4.490;2022-12-07T17:35:10;7.10;99.90
14521;DHT22;7347;50.844;4.490;2022-12-07T17:37:37;7.10;99.90
14521;DHT22;7347;50.844;4.490;2022-12-07T17:40:05;7.00;99.90
14521;DHT22;7347;50.844;4.490;2022-12-07T17:42:32;7.00;99.90
14521;DHT22;7347;50.844;4.490;2022-12-07T17:45:02;7.00;99.90
14521;DHT22;7347;50.844;4.490;2022-12-07T17:47:29;6.90;99.90
14521;DHT22;7347;50.844;4.490;2022-12-07T17:49:58;6.90;99.90
14521;DHT22;7347;50.844;4.490;2022-12-07T17:52:27;6.80;99.90
14521;DHT22;7347;50.844;4.490;2022-12-07T17:55:14;6.80;99.90
14521;DHT22;7347;50.844;4.490;2022-12-07T17:57:41;6.90;99.90
14521;DHT22;7347;50.844;4.490;2022-12-07T18:00:09;6.90;99.90
14521;DHT22;7347;50.844;4.490;2022-12-07T18:02:37;6.90;99.90
14521;DHT22;7347;50.844;4.490;2022-12-07T18:05:06;7.00;99.90
14521;DHT22;7347;50.844;4.490;2022-12-07T18:07:33;7.00;99.90
14521;DHT22;7347;50.844;4.490;2022-12-07T18:10:00;6.80;99.90
14521;DHT22;7347;50.844;4.490;2022-12-07T18:12:26;6.80;99.90
14521;DHT22;7347;50.844;4.490;2022-12-07T18:14:53;6.80;99.90
14521;DHT22;7347;50.844;4.490;2022-12-07T18:17:20;6.80;99.90
14521;DHT22;7347;50.844;4.490;2022-12-07T18:19:47;6.60;99.90
14521;DHT22;7347;50.844;4.490;2022-12-07T18:22:15;6.70;99.90
14521;DHT22;7347;50.844;4.490;2022-12-07T18:24:42;6.50;99.90
14521;DHT22;7347;50.844;4.490;2022-12-07T18:27:09;6.50;99.90
14521;DHT22;7347;50.844;4.490;2022-12-07T18:29:36;6.50;99.90
14521;DHT22;7347;50.844;4.490;2022-12-07T18:32:02;6.50;99.90
14521;DHT22;7347;50.844;4.490;2022-12-07T18:34:30;6.50;99.90
14521;DHT22;7347;50.844;4.490;2022-12-07T18:36:57;6.40;99.90
14521;DHT22;7347;50.844;4.490;2022-12-07T18:39:26;6.30;99.90
14521;DHT22;7347;50.844;4.490;2022-12-07T18:41:52;6.30;99.90
14521;DHT22;7347;50.844;4.490;2022-12-07T18:44:19;6.20;99.90
14521;DHT22;7347;50.844;4.490;2022-12-07T18:46:46;6.20;99.90
14521;DHT22;7347;50.844;4.490;2022-12-07T18:49:13;6.10;99.90
14521;DHT22;7347;50.844;4.490;2022-12-07T18:51:41;6.10;99.90
14521;DHT22;7347;50.844;4.490;2022-12-07T18:54:09;6.10;99.90
14521;DHT22;7347;50.844;4.490;2022-12-07T18:56:38;6.10;99.90
14521;DHT22;7347;50.844;4.490;2022-12-07T18:59:05;6.00;99.90
14521;DHT22;7347;50.844;4.490;2022-12-07T19:01:50;5.90;99.90
14521;DHT22;7347;50.844;4.490;2022-12-07T19:04:17;5.80;99.90
14521;DHT22;7347;50.844;4.490;2022-12-07T19:06:46;5.80;99.90
14521;DHT22;7347;50.844;4.490;2022-12-07T19:09:13;5.80;99.90
14521;DHT22;7347;50.844;4.490;2022-12-07T19:11:42;5.80;99.90
14521;DHT22;7347;50.844;4.490;2022-12-07T19:14:16;5.80;99.90
14521;DHT22;7347;50.844;4.490;2022-12-07T19:16:43;5.90;99.90
14521;DHT22;7347;50.844;4.490;2022-12-07T19:19:11;5.90;99.90
14521;DHT22;7347;50.844;4.490;2022-12-07T19:21:38;6.00;99.90
14521;DHT22;7347;50.844;4.490;2022-12-07T19:24:05;5.90;99.90
14521;DHT22;7347;50.844;4.490;2022-12-07T19:26:32;6.00;99.90
14521;DHT22;7347;50.844;4.490;2022-12-07T19:29:00;6.10;99.90
14521;DHT22;7347;50.844;4.490;2022-12-07T19:31:27;6.20;99.90
14521;DHT22;7347;50.844;4.490;2022-12-07T19:33:55;6.20;99.90
14521;DHT22;7347;50.844;4.490;2022-12-07T19:36:22;6.20;99.90
14521;DHT22;7347;50.844;4.490;2022-12-07T19:38:49;6.20;99.90
14521;DHT22;7347;50.844;4.490;2022-12-07T19:41:16;6.20;99.90
14521;DHT22;7347;50.844;4.490;2022-12-07T19:44:05;6.10;99.90
14521;DHT22;7347;50.844;4.490;2022-12-07T19:46:33;6.10;99.90
14521;DHT22;7347;50.844;4.490;2022-12-07T19:49:00;6.30;99.90
14521;DHT22;7347;50.844;4.490;2022-12-07T19:51:27;6.30;99.90
14521;DHT22;7347;50.844;4.490;2022-12-07T19:53:55;6.10;99.90
14521;DHT22;7347;50.844;4.490;2022-12-07T19:56:24;6.10;99.90
14521;DHT22;7347;50.844;4.490;2022-12-07T19:58:51;6.00;99.90
14521;DHT22;7347;50.844;4.490;2022-12-07T20:01:19;6.10;99.90
14521;DHT22;7347;50.844;4.490;2022-12-07T20:03:47;6.00;99.90
14521;DHT22;7347;50.844;4.490;2022-12-07T20:06:16;5.90;99.90
14521;DHT22;7347;50.844;4.490;2022-12-07T20:08:44;5.90;99.90
14521;DHT22;7347;50.844;4.490;2022-12-07T20:11:11;5.80;99.90
14521;DHT22;7347;50.844;4.490;2022-12-07T20:13:56;5.80;99.90
14521;DHT22;7347;50.844;4.490;2022-12-07T20:16:24;5.70;99.90
14521;DHT22;7347;50.844;4.490;2022-12-07T20:18:51;5.70;99.90
14521;DHT22;7347;50.844;4.490;2022-12-07T20:21:19;5.70;99.90
14521;DHT22;7347;50.844;4.490;2022-12-07T20:23:46;5.70;99.90
14521;DHT22;7347;50.844;4.490;2022-12-07T20:26:13;5.60;99.90
14521;DHT22;7347;50.844;4.490;2022-12-07T20:28:41;5.60;99.90
14521;DHT22;7347;50.844;4.490;2022-12-07T20:31:12;5.60;99.90
14521;DHT22;7347;50.844;4.490;2022-12-07T20:33:40;5.60;99.90
14521;DHT22;7347;50.844;4.490;2022-12-07T20:36:11;5.70;99.90
14521;DHT22;7347;50.844;4.490;2022-12-07T20:38:38;5.60;99.90
14521;DHT22;7347;50.844;4.490;2022-12-07T20:41:08;5.60;99.90
14521;DHT22;7347;50.844;4.490;2022-12-07T20:43:55;5.70;99.90
14521;DHT22;7347;50.844;4.490;2022-12-07T20:46:22;5.70;99.90
14521;DHT22;7347;50.844;4.490;2022-12-07T20:48:50;5.60;99.90
14521;DHT22;7347;50.844;4.490;2022-12-07T20:51:17;5.40;99.90
14521;DHT22;7347;50.844;4.490;2022-12-07T20:53:44;5.30;99.90
14521;DHT22;7347;50.844;4.490;2022-12-07T20:56:17;5.40;99.90
14521;DHT22;7347;50.844;4.490;2022-12-07T20:58:44;5.30;99.90
14521;DHT22;7347;50.844;4.490;2022-12-07T21:01:11;5.30;99.90
14521;DHT22;7347;50.844;4.490;2022-12-07T21:03:38;5.40;99.90
14521;DHT22;7347;50.844;4.490;2022-12-07T21:06:07;5.50;99.90
14521;DHT22;7347;50.844;4.490;2022-12-07T21:08:34;5.50;99.90
14521;DHT22;7347;50.844;4.490;2022-12-07T21:11:06;5.40;99.90
14521;DHT22;7347;50.844;4.490;2022-12-07T21:13:33;5.40;99.90
14521;DHT22;7347;50.844;4.490;2022-12-07T21:16:05;5.40;99.90
14521;DHT22;7347;50.844;4.490;2022-12-07T21:18:32;5.50;99.90
14521;DHT22;7347;50.844;4.490;2022-12-07T21:21:00;5.60;99.90
14521;DHT22;7347;50.844;4.490;2022-12-07T21:23:29;5.70;99.90
14521;DHT22;7347;50.844;4.490;2022-12-07T21:25:56;5.70;99.90
14521;DHT22;7347;50.844;4.490;2022-12-07T21:28:23;5.60;99.90
14521;DHT22;7347;50.844;4.490;2022-12-07T21:30:50;5.60;99.90
14521;DHT22;7347;50.844;4.490;2022-12-07T21:33:16;5.60;99.90
14521;DHT22;7347;50.844;4.490;2022-12-07T21:35:43;5.70;99.90
14521;DHT22;7347;50.844;4.490;2022-12-07T21:38:10;5.60;99.90
14521;DHT22;7347;50.844;4.490;2022-12-07T21:40:38;5.60;99.90
14521;DHT22;7347;50.844;4.490;2022-12-07T21:43:05;5.50;99.90
14521;DHT22;7347;50.844;4.490;2022-12-07T21:45:32;5.60;99.90
14521;DHT22;7347;50.844;4.490;2022-12-07T21:47:58;5.70;99.90
14521;DHT22;7347;50.844;4.490;2022-12-07T21:50:25;5.70;99.90
14521;DHT22;7347;50.844;4.490;2022-12-07T21:52:52;5.70;99.90
14521;DHT22;7347;50.844;4.490;2022-12-07T21:55:19;5.70;99.90
14521;DHT22;7347;50.844;4.490;2022-12-07T21:57:47;5.80;99.90
14521;DHT22;7347;50.844;4.490;2022-12-07T22:00:15;5.80;99.90
14521;DHT22;7347;50.844;4.490;2022-12-07T22:02:42;5.70;99.90
14521;DHT22;7347;50.844;4.490;2022-12-07T22:05:08;5.80;99.90
14521;DHT22;7347;50.844;4.490;2022-12-07T22:07:35;5.90;99.90
14521;DHT22;7347;50.844;4.490;2022-12-07T22:10:03;5.80;99.90
14521;DHT22;7347;50.844;4.490;2022-12-07T22:12:29;5.80;99.90
14521;DHT22;7347;50.844;4.490;2022-12-07T22:14:57;5.80;99.90
14521;DHT22;7347;50.844;4.490;2022-12-07T22:17:34;5.90;99.90
14521;DHT22;7347;50.844;4.490;2022-12-07T22:20:01;5.80;99.90
14521;DHT22;7347;50.844;4.490;2022-12-07T22:22:29;5.80;99.90
14521;DHT22;7347;50.844;4.490;2022-12-07T22:24:56;5.70;99.90
